Ashland, North Carolina
Current Conditions -  °F | °C
As of 3:35 AM on Saturday 01 Nov 2014 (Local Time) from KGEV Reporting Station
Moderate Snow Moderate Snow  
Wind Chill: 21°   Ceiling: 1200
Heat Index: 31°   Visibility: 1mi
Dew Point: 27°   Wind: 14mph
Humidity: 83%   Direction: 300°WNW
Pressure: 29.73"   Gusts: 24mph
Location:  36.4481°N, 81.6486°W
Report Text: KGEV 010735Z AUTO 30012G21KT 1SM SN OVC012 00/M03 A2973 RMK AO2 T10031028
Loading
Personal Weather Stations






























Interactive Weather Map
Tropical Storm Tracking
New forecast layout! Learn more

10-Day Weather Forecast

Advertisements
Track Severe Weather on mobile